sensor_id;sensor_type;location;lat;lon;timestamp;pressure;altitude;pressure_sealevel;temperature;humidity
61010;BME280;46897;55.340;86.082;2022-07-01T12:28:31;98878.53;;;19.77;58.42
61010;BME280;46897;55.340;86.082;2022-07-01T12:31:05;98874.16;;;19.76;58.30
61010;BME280;46897;55.340;86.082;2022-07-01T12:33:36;98871.81;;;19.73;58.51
61010;BME280;46897;55.340;86.082;2022-07-01T12:36:07;98867.19;;;19.65;58.43
61010;BME280;46897;55.340;86.082;2022-07-01T12:38:37;98859.78;;;19.59;58.59
61010;BME280;46897;55.340;86.082;2022-07-01T12:41:26;98866.53;;;19.63;58.69
61010;BME280;46897;55.340;86.082;2022-07-01T12:44:20;98879.59;;;19.66;58.88
61010;BME280;46897;55.340;86.082;2022-07-01T12:46:50;98867.19;;;19.65;58.85
61010;BME280;46897;55.340;86.082;2022-07-01T12:49:21;98853.94;;;19.63;59.18
61010;BME280;46897;55.340;86.082;2022-07-01T12:51:51;98860.13;;;19.64;59.10
61010;BME280;46897;55.340;86.082;2022-07-01T12:54:30;98864.53;;;19.65;59.50
61010;BME280;46897;55.340;86.082;2022-07-01T12:57:00;98867.19;;;19.65;59.24
61010;BME280;46897;55.340;86.082;2022-07-01T12:59:31;98869.50;;;19.60;59.38
61010;BME280;46897;55.340;86.082;2022-07-01T13:02:00;98847.09;;;19.43;59.43
61010;BME280;46897;55.340;86.082;2022-07-01T13:04:30;98860.72;;;19.50;59.55
61010;BME280;46897;55.340;86.082;2022-07-01T13:06:59;98858.19;;;19.48;59.64
61010;BME280;46897;55.340;86.082;2022-07-01T13:09:29;98862.06;;;19.45;59.84
61010;BME280;46897;55.340;86.082;2022-07-01T13:12:05;98852.00;;;19.48;60.04
61010;BME280;46897;55.340;86.082;2022-07-01T13:14:36;98859.22;;;19.47;60.18
61010;BME280;46897;55.340;86.082;2022-07-01T13:17:05;98852.00;;;19.48;59.93
61010;BME280;46897;55.340;86.082;2022-07-01T13:19:34;98842.22;;;19.38;60.11
61010;BME280;46897;55.340;86.082;2022-07-01T13:22:04;98858.84;;;19.42;60.39
61010;BME280;46897;55.340;86.082;2022-07-01T13:24:33;98862.69;;;19.39;60.28
61010;BME280;46897;55.340;86.082;2022-07-01T13:27:03;98842.47;;;19.27;60.49
61010;BME280;46897;55.340;86.082;2022-07-01T13:29:32;98857.31;;;19.39;60.46
61010;BME280;46897;55.340;86.082;2022-07-01T13:32:04;98847.72;;;19.37;60.78
61010;BME280;46897;55.340;86.082;2022-07-01T13:34:34;98854.25;;;19.34;60.67
61010;BME280;46897;55.340;86.082;2022-07-01T13:37:04;98857.63;;;19.36;60.87
61010;BME280;46897;55.340;86.082;2022-07-01T13:39:33;98858.44;;;19.37;60.83
61010;BME280;46897;55.340;86.082;2022-07-01T13:42:03;98855.09;;;19.35;61.24
61010;BME280;46897;55.340;86.082;2022-07-01T13:44:33;98850.56;;;19.35;61.19
61010;BME280;46897;55.340;86.082;2022-07-01T13:47:04;98828.69;;;19.22;61.56
61010;BME280;46897;55.340;86.082;2022-07-01T13:49:36;98855.63;;;19.38;61.69
61010;BME280;46897;55.340;86.082;2022-07-01T13:52:07;98860.16;;;19.38;61.46
61010;BME280;46897;55.340;86.082;2022-07-01T13:54:36;98852.56;;;19.33;61.63
61010;BME280;46897;55.340;86.082;2022-07-01T13:57:06;98849.38;;;19.30;61.71
61010;BME280;46897;55.340;86.082;2022-07-01T13:59:35;98845.97;;;19.28;61.82
61010;BME280;46897;55.340;86.082;2022-07-01T14:02:09;98849.53;;;19.28;62.02
61010;BME280;46897;55.340;86.082;2022-07-01T14:04:38;98851.72;;;19.33;62.03
61010;BME280;46897;55.340;86.082;2022-07-01T14:07:08;98846.50;;;19.31;62.15
61010;BME280;46897;55.340;86.082;2022-07-01T14:09:37;98845.53;;;19.32;62.47
61010;BME280;46897;55.340;86.082;2022-07-01T14:12:09;98844.31;;;19.27;62.51
61010;BME280;46897;55.340;86.082;2022-07-01T14:14:47;98854.88;;;19.28;62.67
61010;BME280;46897;55.340;86.082;2022-07-01T14:17:18;98832.16;;;19.14;62.67
61010;BME280;46897;55.340;86.082;2022-07-01T14:19:47;98840.03;;;19.16;62.79
61010;BME280;46897;55.340;86.082;2022-07-01T14:22:17;98831.28;;;19.14;62.91
61010;BME280;46897;55.340;86.082;2022-07-01T14:24:46;98850.16;;;19.22;62.81
61010;BME280;46897;55.340;86.082;2022-07-01T14:27:15;98843.72;;;19.15;62.86
61010;BME280;46897;55.340;86.082;2022-07-01T14:29:44;98850.69;;;19.08;63.01
61010;BME280;46897;55.340;86.082;2022-07-01T14:32:22;98841.06;;;18.97;63.20
61010;BME280;46897;55.340;86.082;2022-07-01T14:34:55;98817.03;;;18.77;63.21
61010;BME280;46897;55.340;86.082;2022-07-01T14:37:24;98848.03;;;18.90;63.16
61010;BME280;46897;55.340;86.082;2022-07-01T14:39:53;98855.84;;;18.83;63.43
61010;BME280;46897;55.340;86.082;2022-07-01T14:42:25;98855.44;;;18.78;63.66
61010;BME280;46897;55.340;86.082;2022-07-01T14:44:55;98861.91;;;18.75;64.10
61010;BME280;46897;55.340;86.082;2022-07-01T14:47:26;98850.16;;;18.68;64.24
61010;BME280;46897;55.340;86.082;2022-07-01T14:49:56;98860.00;;;18.67;64.25
61010;BME280;46897;55.340;86.082;2022-07-01T14:52:25;98859.31;;;18.65;64.57
61010;BME280;46897;55.340;86.082;2022-07-01T14:54:54;98853.25;;;18.63;64.76
61010;BME280;46897;55.340;86.082;2022-07-01T14:57:23;98847.00;;;18.55;64.90
61010;BME280;46897;55.340;86.082;2022-07-01T14:59:52;98858.25;;;18.58;64.86
61010;BME280;46897;55.340;86.082;2022-07-01T15:02:22;98853.19;;;18.55;65.04
61010;BME280;46897;55.340;86.082;2022-07-01T15:04:53;98844.22;;;18.46;65.25
61010;BME280;46897;55.340;86.082;2022-07-01T15:07:23;98847.22;;;18.43;65.24
61010;BME280;46897;55.340;86.082;2022-07-01T15:09:52;98836.63;;;18.42;65.25
61010;BME280;46897;55.340;86.082;2022-07-01T15:12:23;98852.44;;;18.45;65.27
61010;BME280;46897;55.340;86.082;2022-07-01T15:14:52;98844.28;;;18.37;65.18
61010;BME280;46897;55.340;86.082;2022-07-01T15:17:22;98855.53;;;18.40;65.13
61010;BME280;46897;55.340;86.082;2022-07-01T15:19:53;98846.25;;;18.35;65.18
61010;BME280;46897;55.340;86.082;2022-07-01T15:22:22;98842.91;;;18.33;65.22
61010;BME280;46897;55.340;86.082;2022-07-01T15:24:51;98846.44;;;18.33;65.14
61010;BME280;46897;55.340;86.082;2022-07-01T15:27:21;98850.25;;;18.31;65.36
61010;BME280;46897;55.340;86.082;2022-07-01T15:29:50;98842.25;;;18.21;65.56
61010;BME280;46897;55.340;86.082;2022-07-01T15:32:19;98847.19;;;18.25;65.38
61010;BME280;46897;55.340;86.082;2022-07-01T15:34:48;98854.53;;;18.23;65.92
61010;BME280;46897;55.340;86.082;2022-07-01T15:37:19;98848.44;;;18.21;65.83
61010;BME280;46897;55.340;86.082;2022-07-01T15:39:48;98827.41;;;18.08;66.05
61010;BME280;46897;55.340;86.082;2022-07-01T15:42:29;98841.56;;;18.19;65.96
61010;BME280;46897;55.340;86.082;2022-07-01T15:44:58;98823.63;;;18.01;65.76
61010;BME280;46897;55.340;86.082;2022-07-01T15:47:27;98842.03;;;18.14;65.86
61010;BME280;46897;55.340;86.082;2022-07-01T15:50:13;98833.03;;;18.05;65.90
61010;BME280;46897;55.340;86.082;2022-07-01T15:52:45;98846.00;;;18.10;66.22
61010;BME280;46897;55.340;86.082;2022-07-01T15:55:15;98839.09;;;18.07;66.08
61010;BME280;46897;55.340;86.082;2022-07-01T15:57:44;98835.16;;;18.02;66.29
61010;BME280;46897;55.340;86.082;2022-07-01T16:00:20;98834.88;;;18.05;66.21
61010;BME280;46897;55.340;86.082;2022-07-01T16:02:50;98835.88;;;18.04;66.24
61010;BME280;46897;55.340;86.082;2022-07-01T16:05:20;98835.16;;;18.02;66.04
61010;BME280;46897;55.340;86.082;2022-07-01T16:07:55;98828.75;;;17.95;66.44
61010;BME280;46897;55.340;86.082;2022-07-01T16:10:33;98837.63;;;17.95;66.78
61010;BME280;46897;55.340;86.082;2022-07-01T16:13:03;98841.13;;;17.96;66.48
61010;BME280;46897;55.340;86.082;2022-07-01T16:15:34;98838.06;;;17.91;66.66
61010;BME280;46897;55.340;86.082;2022-07-01T16:18:07;98839.75;;;17.92;66.35
61010;BME280;46897;55.340;86.082;2022-07-01T16:20:45;98817.56;;;17.72;66.67
61010;BME280;46897;55.340;86.082;2022-07-01T16:23:19;98834.16;;;17.85;66.41
61010;BME280;46897;55.340;86.082;2022-07-01T16:25:52;98825.13;;;17.86;66.30
61010;BME280;46897;55.340;86.082;2022-07-01T16:28:23;98834.53;;;17.90;66.36
61010;BME280;46897;55.340;86.082;2022-07-01T16:30:53;98834.38;;;17.92;66.31
61010;BME280;46897;55.340;86.082;2022-07-01T16:33:23;98818.19;;;17.83;66.16
61010;BME280;46897;55.340;86.082;2022-07-01T16:36:00;98825.25;;;17.84;66.17
61010;BME280;46897;55.340;86.082;2022-07-01T16:38:42;98811.88;;;17.75;66.19
61010;BME280;46897;55.340;86.082;2022-07-01T16:41:16;98823.16;;;17.78;66.05
61010;BME280;46897;55.340;86.082;2022-07-01T16:43:46;98827.53;;;17.79;65.86
61010;BME280;46897;55.340;86.082;2022-07-01T16:46:17;98826.38;;;17.82;65.93
61010;BME280;46897;55.340;86.082;2022-07-01T16:48:51;98811.06;;;17.74;65.90
61010;BME280;46897;55.340;86.082;2022-07-01T16:51:23;98822.84;;;17.81;65.91
61010;BME280;46897;55.340;86.082;2022-07-01T16:53:54;98825.69;;;17.80;65.84
61010;BME280;46897;55.340;86.082;2022-07-01T16:56:26;98820.59;;;17.77;66.00
61010;BME280;46897;55.340;86.082;2022-07-01T16:58:58;98823.16;;;17.78;65.94
61010;BME280;46897;55.340;86.082;2022-07-01T17:01:29;98821.16;;;17.80;66.01
61010;BME280;46897;55.340;86.082;2022-07-01T17:03:59;98815.13;;;17.78;65.61
61010;BME280;46897;55.340;86.082;2022-07-01T17:06:31;98755.63;;;17.29;65.84
61010;BME280;46897;55.340;86.082;2022-07-01T17:09:02;98786.09;;;17.46;65.35
61010;BME280;46897;55.340;86.082;2022-07-01T17:11:32;98772.47;;;17.39;65.49
61010;BME280;46897;55.340;86.082;2022-07-01T17:14:02;98761.34;;;17.34;65.28
61010;BME280;46897;55.340;86.082;2022-07-01T17:16:32;98774.44;;;17.37;65.12
61010;BME280;46897;55.340;86.082;2022-07-01T17:19:03;98826.28;;;17.74;65.29
61010;BME280;46897;55.340;86.082;2022-07-01T17:21:37;98769.97;;;17.28;65.21
61010;BME280;46897;55.340;86.082;2022-07-01T17:24:14;98781.06;;;17.43;65.22
61010;BME280;46897;55.340;86.082;2022-07-01T17:26:51;98827.25;;;17.73;65.67
61010;BME280;46897;55.340;86.082;2022-07-01T17:29:30;98818.44;;;17.62;65.56
61010;BME280;46897;55.340;86.082;2022-07-01T17:32:04;98743.72;;;17.14;65.41
61010;BME280;46897;55.340;86.082;2022-07-01T17:34:34;98781.88;;;17.43;65.46
61010;BME280;46897;55.340;86.082;2022-07-01T17:37:04;98817.28;;;17.65;65.60
61010;BME280;46897;55.340;86.082;2022-07-01T17:39:38;98756.91;;;17.25;65.74
61010;BME280;46897;55.340;86.082;2022-07-01T17:42:07;98749.16;;;17.22;65.73
61010;BME280;46897;55.340;86.082;2022-07-01T17:44:37;98801.84;;;17.49;66.06
61010;BME280;46897;55.340;86.082;2022-07-01T17:47:10;98788.66;;;17.38;66.40
61010;BME280;46897;55.340;86.082;2022-07-01T17:49:40;98799.31;;;17.47;66.29
61010;BME280;46897;55.340;86.082;2022-07-01T17:52:18;98811.28;;;17.53;66.42
61010;BME280;46897;55.340;86.082;2022-07-01T17:54:50;98708.03;;;16.76;66.66
61010;BME280;46897;55.340;86.082;2022-07-01T17:57:20;98741.75;;;17.06;66.67
61010;BME280;46897;55.340;86.082;2022-07-01T17:59:51;98752.44;;;17.16;66.90
61010;BME280;46897;55.340;86.082;2022-07-01T18:02:23;98780.25;;;17.33;67.22
61010;BME280;46897;55.340;86.082;2022-07-01T18:04:52;98806.22;;;17.50;67.13
61010;BME280;46897;55.340;86.082;2022-07-01T18:07:22;98792.16;;;17.38;66.95
61010;BME280;46897;55.340;86.082;2022-07-01T18:09:53;98736.13;;;16.99;67.31
61010;BME280;46897;55.340;86.082;2022-07-01T18:12:32;98763.16;;;17.06;67.39
61010;BME280;46897;55.340;86.082;2022-07-01T18:15:03;98796.56;;;17.29;67.16
61010;BME280;46897;55.340;86.082;2022-07-01T18:17:45;98760.19;;;16.99;67.26
61010;BME280;46897;55.340;86.082;2022-07-01T18:20:27;98773.13;;;17.14;67.43
61010;BME280;46897;55.340;86.082;2022-07-01T18:23:08;98723.50;;;16.72;67.64
61010;BME280;46897;55.340;86.082;2022-07-01T18:25:38;98799.69;;;17.25;66.73
61010;BME280;46897;55.340;86.082;2022-07-01T18:28:12;98706.22;;;16.57;67.03
61010;BME280;46897;55.340;86.082;2022-07-01T18:30:44;98702.44;;;16.69;67.28
61010;BME280;46897;55.340;86.082;2022-07-01T18:33:18;98800.81;;;17.22;67.22
61010;BME280;46897;55.340;86.082;2022-07-01T18:35:50;98733.22;;;16.83;67.24
61010;BME280;46897;55.340;86.082;2022-07-01T18:38:23;98806.28;;;17.21;67.64
61010;BME280;46897;55.340;86.082;2022-07-01T18:40:54;98744.16;;;16.89;67.62
61010;BME280;46897;55.340;86.082;2022-07-01T18:43:23;98734.06;;;16.74;67.58
61010;BME280;46897;55.340;86.082;2022-07-01T18:45:53;98724.19;;;16.74;67.82
61010;BME280;46897;55.340;86.082;2022-07-01T18:48:22;98739.13;;;16.77;67.93
61010;BME280;46897;55.340;86.082;2022-07-01T18:50:52;98779.88;;;17.08;68.05
61010;BME280;46897;55.340;86.082;2022-07-01T18:53:21;98786.19;;;17.17;67.61
61010;BME280;46897;55.340;86.082;2022-07-01T18:55:51;98784.19;;;17.19;67.97
61010;BME280;46897;55.340;86.082;2022-07-01T18:58:23;98740.09;;;16.95;68.27
61010;BME280;46897;55.340;86.082;2022-07-01T19:00:53;98783.38;;;17.18;67.82
61010;BME280;46897;55.340;86.082;2022-07-01T19:03:22;98774.38;;;17.19;68.05
61010;BME280;46897;55.340;86.082;2022-07-01T19:05:52;98760.34;;;17.07;68.03
61010;BME280;46897;55.340;86.082;2022-07-01T19:08:21;98750.63;;;17.06;67.96
61010;BME280;46897;55.340;86.082;2022-07-01T19:10:51;98762.69;;;17.10;67.82
61010;BME280;46897;55.340;86.082;2022-07-01T19:13:22;98746.81;;;16.99;67.80
61010;BME280;46897;55.340;86.082;2022-07-01T19:15:52;98770.00;;;17.18;67.79
61010;BME280;46897;55.340;86.082;2022-07-01T19:18:21;98707.78;;;16.69;67.73
61010;BME280;46897;55.340;86.082;2022-07-01T19:20:50;98699.63;;;16.61;67.87
61010;BME280;46897;55.340;86.082;2022-07-01T19:23:20;98706.50;;;16.63;67.72
61010;BME280;46897;55.340;86.082;2022-07-01T19:25:49;98762.59;;;17.02;68.03
61010;BME280;46897;55.340;86.082;2022-07-01T19:28:18;98698.50;;;16.63;67.90
61010;BME280;46897;55.340;86.082;2022-07-01T19:30:49;98757.81;;;16.96;68.04
61010;BME280;46897;55.340;86.082;2022-07-01T19:33:19;98706.78;;;16.60;67.82
61010;BME280;46897;55.340;86.082;2022-07-01T19:35:48;98791.69;;;17.05;68.31
61010;BME280;46897;55.340;86.082;2022-07-01T19:38:17;98775.50;;;17.07;68.10
61010;BME280;46897;55.340;86.082;2022-07-01T19:40:46;98778.31;;;17.05;68.06
61010;BME280;46897;55.340;86.082;2022-07-01T19:43:16;98672.25;;;16.39;68.00
61010;BME280;46897;55.340;86.082;2022-07-01T19:45:45;98645.84;;;16.26;67.89
61010;BME280;46897;55.340;86.082;2022-07-01T19:48:16;98763.16;;;17.06;68.11
61010;BME280;46897;55.340;86.082;2022-07-01T19:50:45;98741.09;;;16.94;68.20
61010;BME280;46897;55.340;86.082;2022-07-01T19:53:14;98762.84;;;17.09;68.03
61010;BME280;46897;55.340;86.082;2022-07-01T19:55:43;98716.75;;;16.78;68.12
61010;BME280;46897;55.340;86.082;2022-07-01T19:58:13;98752.47;;;16.96;68.21
61010;BME280;46897;55.340;86.082;2022-07-01T20:00:42;98701.19;;;16.63;68.39
61010;BME280;46897;55.340;86.082;2022-07-01T20:03:11;98727.59;;;16.86;68.49
61010;BME280;46897;55.340;86.082;2022-07-01T20:05:42;98755.28;;;16.95;68.59
61010;BME280;46897;55.340;86.082;2022-07-01T20:08:11;98737.28;;;16.87;68.64
61010;BME280;46897;55.340;86.082;2022-07-01T20:10:41;98737.00;;;17.00;69.19
61010;BME280;46897;55.340;86.082;2022-07-01T20:13:10;98689.63;;;16.63;69.21
61010;BME280;46897;55.340;86.082;2022-07-01T20:15:39;98752.75;;;16.93;69.58
61010;BME280;46897;55.340;86.082;2022-07-01T20:18:09;98732.78;;;16.78;69.69
61010;BME280;46897;55.340;86.082;2022-07-01T20:20:38;98714.66;;;16.71;69.96
61010;BME280;46897;55.340;86.082;2022-07-01T20:23:09;98657.75;;;16.22;70.54
61010;BME280;46897;55.340;86.082;2022-07-01T20:25:38;98671.09;;;16.32;70.33
61010;BME280;46897;55.340;86.082;2022-07-01T20:28:07;98696.69;;;16.35;70.28
61010;BME280;46897;55.340;86.082;2022-07-01T20:30:38;98746.00;;;16.69;70.31
61010;BME280;46897;55.340;86.082;2022-07-01T20:33:08;98686.59;;;16.28;70.37
61010;BME280;46897;55.340;86.082;2022-07-01T20:35:37;98710.59;;;16.48;70.48
61010;BME280;46897;55.340;86.082;2022-07-01T20:38:08;98744.88;;;16.62;70.73
61010;BME280;46897;55.340;86.082;2022-07-01T20:40:37;98733.63;;;16.49;70.40
61010;BME280;46897;55.340;86.082;2022-07-01T20:43:06;98747.84;;;16.59;70.56
61010;BME280;46897;55.340;86.082;2022-07-01T20:45:35;98681.09;;;16.20;70.85
61010;BME280;46897;55.340;86.082;2022-07-01T20:48:05;98731.97;;;16.48;70.76
61010;BME280;46897;55.340;86.082;2022-07-01T20:50:34;98742.78;;;16.56;71.01
61010;BME280;46897;55.340;86.082;2022-07-01T20:53:03;98745.72;;;16.53;71.00
61010;BME280;46897;55.340;86.082;2022-07-01T20:55:34;98730.13;;;16.48;71.11
61010;BME280;46897;55.340;86.082;2022-07-01T20:58:03;98677.72;;;16.18;70.96
61010;BME280;46897;55.340;86.082;2022-07-01T21:00:33;98676.75;;;16.19;71.21
61010;BME280;46897;55.340;86.082;2022-07-01T21:03:03;98737.56;;;16.55;71.48
61010;BME280;46897;55.340;86.082;2022-07-01T21:05:32;98717.06;;;16.45;71.19
61010;BME280;46897;55.340;86.082;2022-07-01T21:08:02;98637.41;;;15.82;71.12
61010;BME280;46897;55.340;86.082;2022-07-01T21:10:31;98731.53;;;16.43;71.33
61010;BME280;46897;55.340;86.082;2022-07-01T21:13:02;98664.50;;;16.07;71.46
61010;BME280;46897;55.340;86.082;2022-07-01T21:15:31;98685.03;;;16.06;70.99
61010;BME280;46897;55.340;86.082;2022-07-01T21:18:00;98692.06;;;16.07;70.91
61010;BME280;46897;55.340;86.082;2022-07-01T21:20:29;98683.06;;;16.08;70.79
61010;BME280;46897;55.340;86.082;2022-07-01T21:22:59;98683.88;;;15.99;71.06
61010;BME280;46897;55.340;86.082;2022-07-01T21:25:28;98733.50;;;16.31;71.10
61010;BME280;46897;55.340;86.082;2022-07-01T21:27:57;98679.41;;;16.00;70.84
61010;BME280;46897;55.340;86.082;2022-07-01T21:30:28;98735.03;;;16.24;70.72
61010;BME280;46897;55.340;86.082;2022-07-01T21:33:05;98755.72;;;16.31;70.69
61010;BME280;46897;55.340;86.082;2022-07-01T21:35:34;98680.09;;;15.82;70.58
61010;BME280;46897;55.340;86.082;2022-07-01T21:38:04;98714.94;;;15.90;70.62
61010;BME280;46897;55.340;86.082;2022-07-01T21:40:34;98673.44;;;15.67;70.91
61010;BME280;46897;55.340;86.082;2022-07-01T21:43:04;98755.13;;;16.18;71.00
61010;BME280;46897;55.340;86.082;2022-07-01T21:45:36;98695.94;;;15.84;71.13
61010;BME280;46897;55.340;86.082;2022-07-01T21:48:07;98739.81;;;16.10;70.90
61010;BME280;46897;55.340;86.082;2022-07-01T21:50:36;98754.16;;;16.19;70.92
61010;BME280;46897;55.340;86.082;2022-07-01T21:53:06;98693.56;;;15.81;71.05
61010;BME280;46897;55.340;86.082;2022-07-01T21:55:38;98752.47;;;16.18;71.33
61010;BME280;46897;55.340;86.082;2022-07-01T21:58:11;98756.13;;;16.17;71.23
61010;BME280;46897;55.340;86.082;2022-07-01T22:00:42;98723.63;;;15.92;71.40
61010;BME280;46897;55.340;86.082;2022-07-01T22:03:12;98675.66;;;15.62;71.14
61010;BME280;46897;55.340;86.082;2022-07-01T22:05:44;98735.31;;;16.01;71.05
61010;BME280;46897;55.340;86.082;2022-07-01T22:08:30;98740.50;;;16.03;71.07
61010;BME280;46897;55.340;86.082;2022-07-01T22:11:01;98713.53;;;15.86;71.20
61010;BME280;46897;55.340;86.082;2022-07-01T22:13:38;98691.97;;;15.68;70.95
61010;BME280;46897;55.340;86.082;2022-07-01T22:16:13;98751.03;;;16.04;70.92
61010;BME280;46897;55.340;86.082;2022-07-01T22:18:44;98760.75;;;16.15;71.24
61010;BME280;46897;55.340;86.082;2022-07-01T22:21:16;98685.78;;;15.68;71.04
61010;BME280;46897;55.340;86.082;2022-07-01T22:23:53;98754.53;;;16.05;71.05
61010;BME280;46897;55.340;86.082;2022-07-01T22:26:24;98771.25;;;16.07;71.04
61010;BME280;46897;55.340;86.082;2022-07-01T22:28:55;98763.41;;;16.05;71.09
61010;BME280;46897;55.340;86.082;2022-07-01T22:31:26;98736.69;;;15.86;70.95
61010;BME280;46897;55.340;86.082;2022-07-01T22:33:56;98649.19;;;15.29;71.00
61010;BME280;46897;55.340;86.082;2022-07-01T22:36:26;98704.00;;;15.53;71.03
61010;BME280;46897;55.340;86.082;2022-07-01T22:38:56;98765.91;;;15.97;71.17
61010;BME280;46897;55.340;86.082;2022-07-01T22:41:26;98670.25;;;15.32;71.18
61010;BME280;46897;55.340;86.082;2022-07-01T22:43:56;98712.44;;;15.58;71.27
61010;BME280;46897;55.340;86.082;2022-07-01T22:46:41;98752.13;;;15.82;71.29
61010;BME280;46897;55.340;86.082;2022-07-01T22:49:17;98756.91;;;15.88;71.49
61010;BME280;46897;55.340;86.082;2022-07-01T22:51:56;98716.25;;;15.65;71.42
61010;BME280;46897;55.340;86.082;2022-07-01T22:54:34;98727.03;;;15.64;71.56
61010;BME280;46897;55.340;86.082;2022-07-01T22:57:05;98757.19;;;15.85;71.30
61010;BME280;46897;55.340;86.082;2022-07-01T22:59:34;98756.47;;;15.83;71.48
61010;BME280;46897;55.340;86.082;2022-07-01T23:02:10;98730.97;;;15.60;71.42
61010;BME280;46897;55.340;86.082;2022-07-01T23:04:44;98754.22;;;15.79;71.64
61010;BME280;46897;55.340;86.082;2022-07-01T23:07:19;98766.03;;;15.76;71.48
61010;BME280;46897;55.340;86.082;2022-07-01T23:10:00;98759.81;;;15.76;71.84
61010;BME280;46897;55.340;86.082;2022-07-01T23:12:36;98716.25;;;15.25;71.95
61010;BME280;46897;55.340;86.082;2022-07-01T23:15:08;98755.50;;;15.53;71.37
61010;BME280;46897;55.340;86.082;2022-07-01T23:17:57;98752.22;;;15.40;71.98
61010;BME280;46897;55.340;86.082;2022-07-01T23:20:26;98756.56;;;15.41;71.70
61010;BME280;46897;55.340;86.082;2022-07-01T23:22:56;98741.53;;;15.30;72.02
61010;BME280;46897;55.340;86.082;2022-07-01T23:25:25;98777.81;;;15.52;72.17
61010;BME280;46897;55.340;86.082;2022-07-01T23:27:54;98765.09;;;15.35;72.31
61010;BME280;46897;55.340;86.082;2022-07-01T23:30:24;98782.19;;;15.53;72.48
61010;BME280;46897;55.340;86.082;2022-07-01T23:32:53;98798.94;;;15.65;72.87
61010;BME280;46897;55.340;86.082;2022-07-01T23:35:24;98802.44;;;15.66;72.76
61010;BME280;46897;55.340;86.082;2022-07-01T23:37:54;98745.31;;;15.28;72.61
61010;BME280;46897;55.340;86.082;2022-07-01T23:40:25;98801.72;;;15.64;72.54
61010;BME280;46897;55.340;86.082;2022-07-01T23:42:55;98805.63;;;15.60;72.55
61010;BME280;46897;55.340;86.082;2022-07-01T23:45:24;98779.72;;;15.41;72.47
61010;BME280;46897;55.340;86.082;2022-07-01T23:47:53;98752.97;;;15.21;72.79
61010;BME280;46897;55.340;86.082;2022-07-01T23:50:24;98792.97;;;15.52;72.88
61010;BME280;46897;55.340;86.082;2022-07-01T23:52:53;98808.13;;;15.51;73.15
61010;BME280;46897;55.340;86.082;2022-07-01T23:55:22;98797.84;;;15.47;73.06
61010;BME280;46897;55.340;86.082;2022-07-01T23:57:52;98766.31;;;15.21;73.25
